createdAt,value
2022-08-20T00:02:26.864Z,21.84
2022-08-20T00:07:29.271Z,21.82
2022-08-20T00:12:30.854Z,21.79
2022-08-20T00:17:37.720Z,21.77
2022-08-20T00:22:39.410Z,21.74
2022-08-20T00:27:40.874Z,21.73
2022-08-20T00:32:43.386Z,21.73
2022-08-20T00:37:44.761Z,21.68
2022-08-20T00:42:47.982Z,21.65
2022-08-20T00:47:49.500Z,21.60
2022-08-20T00:52:54.253Z,21.55
2022-08-20T00:58:01.533Z,21.46
2022-08-20T01:03:04.370Z,21.40
2022-08-20T01:08:06.477Z,21.41
2022-08-20T01:13:11.591Z,21.40
2022-08-20T01:18:14.895Z,21.36
2022-08-20T01:23:27.457Z,21.31
2022-08-20T01:28:31.835Z,21.31
2022-08-20T01:33:33.328Z,21.26
2022-08-20T01:38:34.789Z,21.26
2022-08-20T01:43:37.283Z,21.21
2022-08-20T01:48:40.648Z,21.17
2022-08-20T01:53:46.968Z,21.14
2022-08-20T01:58:55.870Z,21.11
2022-08-20T02:04:01.897Z,21.07
2022-08-20T02:09:04.880Z,21.01
2022-08-20T02:14:08.722Z,20.97
2022-08-20T02:19:12.777Z,20.95
2022-08-20T02:24:14.639Z,20.93
2022-08-20T02:29:16.246Z,20.95
2022-08-20T02:34:22.888Z,20.94
2022-08-20T02:39:26.758Z,20.92
2022-08-20T02:44:28.170Z,20.93
2022-08-20T02:49:29.540Z,20.92
2022-08-20T02:54:31.033Z,20.91
2022-08-20T02:59:32.370Z,20.86
2022-08-20T03:04:33.694Z,20.75
2022-08-20T03:09:35.025Z,20.69
2022-08-20T03:14:37.502Z,20.67
2022-08-20T03:19:39.299Z,20.64
2022-08-20T03:24:40.676Z,20.55
2022-08-20T03:29:42.052Z,20.46
2022-08-20T03:34:43.420Z,20.38
2022-08-20T03:39:45.135Z,20.32
2022-08-20T03:44:48.503Z,20.28
2022-08-20T03:50:01.099Z,20.28
2022-08-20T03:55:03.217Z,20.24
2022-08-20T04:00:05.504Z,20.21
2022-08-20T04:05:13.470Z,20.19
2022-08-20T04:10:14.922Z,20.16
2022-08-20T04:15:17.193Z,20.14
2022-08-20T04:20:22.690Z,20.13
2022-08-20T04:25:24.046Z,20.14
2022-08-20T04:30:25.926Z,20.09
2022-08-20T04:35:28.038Z,20.03
2022-08-20T04:40:48.190Z,19.99
2022-08-20T04:45:54.422Z,19.96
2022-08-20T04:50:57.155Z,19.94
2022-08-20T04:56:01.431Z,19.90
2022-08-20T05:01:05.304Z,19.82
2022-08-20T05:06:07.811Z,19.64
2022-08-20T05:11:35.913Z,19.52
2022-08-20T05:16:32.851Z,19.44
2022-08-20T05:21:34.254Z,19.38
2022-08-20T05:26:35.742Z,19.39
2022-08-20T05:31:38.352Z,19.41
2022-08-20T05:36:45.472Z,19.43
2022-08-20T05:41:50.721Z,19.48
2022-08-20T05:46:52.078Z,19.52
2022-08-20T05:51:53.544Z,19.56
2022-08-20T05:56:56.964Z,19.59
2022-08-20T06:01:58.317Z,19.59
2022-08-20T06:07:04.561Z,19.58
2022-08-20T06:12:07.683Z,19.59
2022-08-20T06:17:15.397Z,19.57
2022-08-20T06:22:18.205Z,19.53
2022-08-20T06:27:23.077Z,19.51
2022-08-20T06:32:31.917Z,19.47
2022-08-20T06:37:36.890Z,19.49
2022-08-20T06:42:45.734Z,19.49
2022-08-20T06:47:49.778Z,19.49
2022-08-20T06:52:52.651Z,19.49
2022-08-20T06:58:02.496Z,19.50
2022-08-20T07:03:04.844Z,19.49
2022-08-20T07:08:06.162Z,19.48
2022-08-20T07:13:07.540Z,19.47
2022-08-20T07:18:09.726Z,19.49
2022-08-20T07:23:11.997Z,19.51
2022-08-20T07:28:15.766Z,19.52
2022-08-20T07:33:17.620Z,19.55
2022-08-20T07:38:24.441Z,19.51
2022-08-20T07:43:26.265Z,19.48
2022-08-20T07:48:32.079Z,19.47
2022-08-20T07:53:36.489Z,19.46
2022-08-20T07:58:39.491Z,19.47
2022-08-20T08:03:49.828Z,19.52
2022-08-20T08:08:54.281Z,19.56
2022-08-20T08:13:56.278Z,19.60
2022-08-20T08:18:58.431Z,19.70
2022-08-20T08:23:59.818Z,19.79
2022-08-20T08:29:02.616Z,19.84
2022-08-20T08:34:04.097Z,19.87
2022-08-20T08:39:07.485Z,19.94
2022-08-20T08:44:13.228Z,19.95
2022-08-20T08:49:18.420Z,19.95
2022-08-20T08:54:22.225Z,19.97
2022-08-20T08:59:24.795Z,19.99
2022-08-20T09:04:38.637Z,20.03
2022-08-20T09:09:43.466Z,20.07
2022-08-20T09:14:48.271Z,20.09
2022-08-20T09:19:53.138Z,20.10
2022-08-20T09:24:54.901Z,20.19
2022-08-20T09:29:57.067Z,20.27
2022-08-20T09:34:59.842Z,20.34
2022-08-20T09:40:01.633Z,20.38
2022-08-20T09:45:05.315Z,20.43
2022-08-20T09:50:12.849Z,20.52
2022-08-20T09:55:22.704Z,20.60
2022-08-20T10:00:25.748Z,20.66
2022-08-20T10:05:28.650Z,20.71
2022-08-20T10:10:30.422Z,20.72
2022-08-20T10:15:33.744Z,20.72
2022-08-20T10:20:35.672Z,20.72
2022-08-20T10:25:37.924Z,20.72
2022-08-20T10:30:40.828Z,20.72
2022-08-20T10:35:42.163Z,20.72
2022-08-20T10:40:52.169Z,20.71
2022-08-20T10:45:54.340Z,20.71
2022-08-20T10:50:56.604Z,20.69
2022-08-20T10:55:59.007Z,20.66
2022-08-20T11:01:01.283Z,20.60
2022-08-20T11:06:04.655Z,20.55
2022-08-20T11:11:07.181Z,20.50
2022-08-20T11:16:10.080Z,20.49
2022-08-20T11:21:11.728Z,20.48
2022-08-20T11:26:21.548Z,20.47
2022-08-20T11:31:24.859Z,20.46
2022-08-20T11:36:26.620Z,20.40
2022-08-20T11:41:28.530Z,20.38
2022-08-20T11:46:33.294Z,20.36
2022-08-20T11:51:49.132Z,20.37
2022-08-20T11:56:52.495Z,20.40
2022-08-20T12:02:03.089Z,20.39
2022-08-20T12:07:10.087Z,20.37
2022-08-20T12:12:12.376Z,20.37
2022-08-20T12:17:21.206Z,20.38
2022-08-20T12:22:25.451Z,20.37
2022-08-20T12:27:29.230Z,20.37
2022-08-20T12:32:32.070Z,20.38
2022-08-20T12:37:33.674Z,20.40
2022-08-20T12:42:35.359Z,20.38
2022-08-20T12:47:39.017Z,20.38
2022-08-20T12:52:40.756Z,20.41
2022-08-20T12:57:51.065Z,20.45
2022-08-20T13:02:54.549Z,20.50
2022-08-20T13:07:56.786Z,20.49
2022-08-20T13:13:00.111Z,20.45
2022-08-20T13:18:03.474Z,20.43
2022-08-20T13:23:07.154Z,20.40
2022-08-20T13:28:09.239Z,20.38
2022-08-20T13:33:11.505Z,20.41
2022-08-20T13:38:14.446Z,20.43
2022-08-20T13:43:16.245Z,20.47
2022-08-20T13:48:18.430Z,20.50
2022-08-20T13:53:20.671Z,20.52
2022-08-20T13:58:23.006Z,20.50
2022-08-20T14:03:25.316Z,20.51
2022-08-20T14:08:27.360Z,20.54
2022-08-20T14:13:29.230Z,20.53
2022-08-20T14:18:31.406Z,20.50
2022-08-20T14:23:36.986Z,20.50
2022-08-20T14:28:39.911Z,20.51
2022-08-20T14:33:44.702Z,20.52
2022-08-20T14:38:47.797Z,20.52
2022-08-20T14:43:49.332Z,20.52
2022-08-20T14:48:52.552Z,20.50
2022-08-20T14:53:55.196Z,20.50
2022-08-20T14:58:57.142Z,20.50
2022-08-20T15:04:00.445Z,20.49
2022-08-20T15:09:02.803Z,20.52
2022-08-20T15:14:10.591Z,20.61
2022-08-20T15:19:13.446Z,20.67
2022-08-20T15:24:19.401Z,20.66
2022-08-20T15:29:23.290Z,20.67
2022-08-20T15:34:25.952Z,20.69
2022-08-20T15:39:27.832Z,20.68
2022-08-20T15:44:30.377Z,20.67
2022-08-20T15:49:31.819Z,20.66
2022-08-20T15:54:33.377Z,20.62
2022-08-20T15:59:52.206Z,20.59
2022-08-20T16:05:13.381Z,20.53
2022-08-20T16:10:27.673Z,20.51
2022-08-20T16:15:30.863Z,20.47
2022-08-20T16:20:40.453Z,20.50
2022-08-20T16:25:48.615Z,20.54
2022-08-20T16:30:53.572Z,20.59
2022-08-20T16:35:58.918Z,20.61
2022-08-20T16:41:21.384Z,20.59
2022-08-20T16:46:28.591Z,20.58
2022-08-20T16:51:32.170Z,20.55
2022-08-20T16:56:35.666Z,20.56
2022-08-20T17:01:37.049Z,20.56
2022-08-20T17:06:38.566Z,20.57
2022-08-20T17:11:41.602Z,20.55
2022-08-20T17:16:45.425Z,20.51
2022-08-20T17:21:50.484Z,20.50
2022-08-20T17:26:57.676Z,20.48
2022-08-20T17:32:14.614Z,20.47
2022-08-20T17:37:22.343Z,20.49
2022-08-20T17:42:26.220Z,20.51
2022-08-20T17:47:31.991Z,20.53
2022-08-20T17:52:39.580Z,20.58
2022-08-20T17:57:43.429Z,20.61
2022-08-20T18:02:44.855Z,20.62
2022-08-20T18:07:52.370Z,20.64
2022-08-20T18:13:06.633Z,20.65
2022-08-20T18:18:08.065Z,20.68
2022-08-20T18:23:29.723Z,20.72
2022-08-20T18:28:38.233Z,20.74
2022-08-20T18:33:42.185Z,20.73
2022-08-20T18:38:55.081Z,20.69
2022-08-20T18:44:05.141Z,20.66
2022-08-20T18:49:08.463Z,20.64
2022-08-20T18:54:21.618Z,20.65
2022-08-20T18:59:23.092Z,20.66
2022-08-20T19:04:29.059Z,20.69
2022-08-20T19:09:43.256Z,20.72
2022-08-20T19:15:01.339Z,20.73
2022-08-20T19:20:05.971Z,20.70
2022-08-20T19:25:07.764Z,20.69
2022-08-20T19:30:09.570Z,20.66
2022-08-20T19:35:17.147Z,20.69
2022-08-20T19:40:22.512Z,20.68
2022-08-20T19:45:37.321Z,20.68
2022-08-20T19:50:38.677Z,20.69
2022-08-20T19:55:40.750Z,20.67
2022-08-20T20:00:44.641Z,20.68
2022-08-20T20:05:51.041Z,20.69
2022-08-20T20:10:53.743Z,20.69
2022-08-20T20:15:56.252Z,20.71
2022-08-20T20:21:08.998Z,20.71
2022-08-20T20:26:14.631Z,20.68
2022-08-20T20:31:24.669Z,20.67
2022-08-20T20:36:37.306Z,20.65
2022-08-20T20:41:38.718Z,20.62
2022-08-20T20:46:40.069Z,20.63
2022-08-20T20:51:42.800Z,20.61
2022-08-20T20:56:44.204Z,20.60
2022-08-20T21:01:49.529Z,20.58
2022-08-20T21:06:52.885Z,20.55
2022-08-20T21:11:54.257Z,20.54
2022-08-20T21:16:58.154Z,20.52
2022-08-20T21:21:59.635Z,20.51
2022-08-20T21:27:03.490Z,20.47
2022-08-20T21:32:05.231Z,20.44
2022-08-20T21:37:06.558Z,20.41
2022-08-20T21:42:28.506Z,20.40
2022-08-20T21:47:31.190Z,20.38
2022-08-20T21:52:32.589Z,20.38
2022-08-20T21:57:37.448Z,20.35
2022-08-20T22:02:39.862Z,20.32
2022-08-20T22:07:42.485Z,20.34
2022-08-20T22:12:44.316Z,20.32
2022-08-20T22:17:45.890Z,20.29
2022-08-20T22:22:47.344Z,20.26
2022-08-20T22:27:48.804Z,20.23
2022-08-20T22:32:52.107Z,20.20
2022-08-20T22:38:02.978Z,20.17
2022-08-20T22:43:04.868Z,20.19
2022-08-20T22:48:07.106Z,20.19
2022-08-20T22:53:08.860Z,20.19
2022-08-20T22:58:10.872Z,20.20
2022-08-20T23:03:12.754Z,20.21
2022-08-20T23:08:14.978Z,20.21
2022-08-20T23:13:16.353Z,20.24
2022-08-20T23:18:19.120Z,20.24
2022-08-20T23:23:21.606Z,20.23
2022-08-20T23:28:24.409Z,20.21
2022-08-20T23:33:26.333Z,20.19
2022-08-20T23:38:28.899Z,20.18
2022-08-20T23:43:31.068Z,20.16
2022-08-20T23:48:34.748Z,20.15
2022-08-20T23:53:36.742Z,20.14
2022-08-20T23:58:39.509Z,20.14
